Hauptseite
METAR-TAF:

METAR-TAF

Flughäfen :

Kansas City, Missouri, Vereinigte Staaten

Charles B. Wheeler Downtown Airport

Breite: 39-07-15N, Länge: 094-35-49W, Höhe: 231 m

Beobachtung

Neuester Wetterbericht von vor 47 Minuten, um 00:54 UTC
Wind 8 kt aus Süd/Südwest
Temperatur 2°C
Luftfeuchtigkeit 55%
Luftdruck 1019 hPa
Sichtweite: 16.1 km
Himmel klar

METAR: KMKC 190054Z 20008KT 10SM CLR 02/M06 A3008 RMK AO2 SLP195 T00221061

Zeit: 19:41 (01:41 UTC)

Prognose

Neuester Wetterbericht von vor 2 Stunden und 18 Minuten, um 23:23 UTC
Gültige Prognose vom 19 um 00 UTC bis 19 um 24 UTC
Wind 10 kt aus Süd/Südwest
Sichtweite: 10 km
Durchbrochene Bewölkung in der Höhe von 25000 ft

TAF: KMKC 182323Z 1900/1924 21010KT P6SM BKN250

Wetterbeobachtungen und Prognosen von mehr als 4000 Flughäfen (METAR und TAF Bericht).

Die verfügbaren Stationen werden durch gelbe und rote Markierungen auf der Karte dargestellt.

Führen Sie die Maus auf sie, um den Namen der Station zu sehen.

Darauf klicken, um die Beobachtung von Wetterbeobachtungen und Prognosen zu sehen.

Um die Karte zu ändern : klicken Sie auf den grünen Tasten mit einem schwarzen Kreuz Zum Vergrößern, auf den grünen Button mit einem Gedankenstrich zu verkleinern, oder auf die grünen Pfeile für benachbarte Karten.


METAR-TAF: